createdAt,value
2022-11-13T00:01:43.815Z,20.87
2022-11-13T00:04:30.439Z,23.20
2022-11-13T00:07:17.488Z,24.60
2022-11-13T00:10:05.072Z,21.63
2022-11-13T00:12:53.691Z,23.47
2022-11-13T00:15:40.680Z,22.80
2022-11-13T00:18:30.635Z,23.00
2022-11-13T00:21:20.385Z,26.70
2022-11-13T00:24:08.529Z,22.83
2022-11-13T00:26:55.382Z,22.90
2022-11-13T00:29:42.276Z,23.70
2022-11-13T00:32:29.536Z,21.53
2022-11-13T00:35:18.051Z,24.27
2022-11-13T00:38:04.760Z,24.60
2022-11-13T00:40:51.641Z,22.37
2022-11-13T00:43:38.423Z,23.30
2022-11-13T00:46:25.087Z,21.20
2022-11-13T00:49:13.121Z,22.70
2022-11-13T00:52:03.020Z,22.90
2022-11-13T00:54:49.767Z,21.10
2022-11-13T00:57:36.542Z,19.30
2022-11-13T01:00:23.732Z,20.83
2022-11-13T01:03:11.240Z,20.83
2022-11-13T01:05:58.094Z,19.37
2022-11-13T01:08:47.177Z,23.77
2022-11-13T01:11:34.209Z,20.03
2022-11-13T01:14:20.971Z,23.37
2022-11-13T01:17:07.731Z,22.60
2022-11-13T01:19:54.528Z,21.03
2022-11-13T01:22:41.401Z,21.27
2022-11-13T01:25:31.359Z,20.20
2022-11-13T01:28:18.209Z,21.37
2022-11-13T01:31:07.698Z,20.23
2022-11-13T01:33:54.590Z,22.50
2022-11-13T01:36:41.576Z,21.80
2022-11-13T01:39:28.426Z,26.73
2022-11-13T01:42:16.968Z,23.33
2022-11-13T01:45:04.141Z,23.90
2022-11-13T01:47:52.168Z,23.47
2022-11-13T01:50:39.534Z,24.97
2022-11-13T01:53:26.984Z,22.20
2022-11-13T01:56:15.401Z,23.30
2022-11-13T01:59:13.637Z,22.60
2022-11-13T02:02:00.748Z,25.73
2022-11-13T02:04:48.544Z,25.10
2022-11-13T02:07:35.842Z,21.03
2022-11-13T02:10:22.869Z,23.77
2022-11-13T02:13:10.008Z,24.47
2022-11-13T02:15:58.961Z,23.40
2022-11-13T02:18:47.029Z,25.63
2022-11-13T02:21:42.306Z,27.27
2022-11-13T02:24:37.709Z,21.97
2022-11-13T02:27:32.369Z,27.57
2022-11-13T02:30:26.851Z,26.50
2022-11-13T02:33:27.983Z,23.40
2022-11-13T02:36:16.616Z,23.37
2022-11-13T02:39:08.469Z,24.87
2022-11-13T02:41:56.741Z,24.70
2022-11-13T02:44:43.567Z,25.43
2022-11-13T02:47:31.210Z,23.07
2022-11-13T02:50:19.242Z,24.00
2022-11-13T02:53:07.399Z,22.53
2022-11-13T02:55:54.522Z,24.13
2022-11-13T02:58:43.035Z,23.93
2022-11-13T03:01:30.251Z,28.30
2022-11-13T03:04:17.292Z,36.67
2022-11-13T03:07:04.530Z,33.97
2022-11-13T03:09:51.143Z,28.40
2022-11-13T03:12:38.218Z,25.87
2022-11-13T03:15:26.588Z,23.67
2022-11-13T03:18:13.658Z,33.37
2022-11-13T03:21:07.676Z,24.23
2022-11-13T03:23:55.916Z,27.57
2022-11-13T03:26:42.631Z,28.87
2022-11-13T03:29:29.323Z,28.33
2022-11-13T03:32:17.693Z,27.10
2022-11-13T03:35:05.821Z,28.30
2022-11-13T03:37:53.044Z,26.23
2022-11-13T03:40:39.831Z,29.77
2022-11-13T03:43:26.636Z,31.70
2022-11-13T03:46:13.324Z,26.77
2022-11-13T03:49:01.747Z,26.23
2022-11-13T03:51:48.450Z,32.03
2022-11-13T03:54:35.528Z,30.10
2022-11-13T03:57:22.543Z,27.33
2022-11-13T04:00:11.509Z,30.37
2022-11-13T04:02:58.411Z,31.33
2022-11-13T04:05:48.820Z,28.53
2022-11-13T04:08:35.758Z,30.87
2022-11-13T04:11:22.747Z,26.73
2022-11-13T04:14:09.411Z,32.20
2022-11-13T04:16:56.143Z,31.13
2022-11-13T04:19:42.927Z,29.10
2022-11-13T04:22:31.272Z,28.70
2022-11-13T04:25:18.677Z,27.93
2022-11-13T04:28:05.872Z,32.40
2022-11-13T04:30:55.355Z,30.37
2022-11-13T04:33:42.519Z,29.97
2022-11-13T04:36:29.396Z,28.43
2022-11-13T04:39:17.454Z,26.97
2022-11-13T04:42:22.225Z,34.93
2022-11-13T04:45:10.706Z,32.03
2022-11-13T04:47:57.932Z,27.23
2022-11-13T04:50:44.890Z,31.67
2022-11-13T04:53:32.062Z,30.77
2022-11-13T04:56:20.650Z,29.17
2022-11-13T04:59:07.588Z,28.60
2022-11-13T05:01:55.704Z,27.57
2022-11-13T05:04:42.655Z,28.57
2022-11-13T05:07:29.602Z,28.47
2022-11-13T05:10:18.360Z,29.37
2022-11-13T05:13:06.756Z,28.90
2022-11-13T05:16:02.160Z,31.63
2022-11-13T05:18:49.107Z,30.87
2022-11-13T05:21:36.112Z,31.23
2022-11-13T05:24:22.935Z,29.97
2022-11-13T05:27:14.291Z,28.23
2022-11-13T05:30:06.865Z,33.43
2022-11-13T05:32:54.269Z,27.63
2022-11-13T05:35:41.220Z,33.03
2022-11-13T05:38:30.011Z,32.30
2022-11-13T05:41:19.555Z,30.70
2022-11-13T05:44:06.683Z,27.77
2022-11-13T05:46:54.925Z,29.73
2022-11-13T05:49:42.006Z,29.87
2022-11-13T05:52:28.739Z,30.47
2022-11-13T05:55:15.814Z,30.07
2022-11-13T05:58:02.840Z,27.53
2022-11-13T06:00:49.894Z,30.30
2022-11-13T06:03:39.491Z,30.47
2022-11-13T06:06:28.746Z,32.03
2022-11-13T06:09:18.248Z,28.07
2022-11-13T06:12:06.446Z,31.43
2022-11-13T06:14:53.106Z,27.80
2022-11-13T06:17:39.903Z,34.63
2022-11-13T06:20:28.517Z,31.77
2022-11-13T06:23:15.497Z,30.83
2022-11-13T06:26:03.608Z,29.97
2022-11-13T06:28:51.744Z,30.37
2022-11-13T06:31:39.318Z,29.70
2022-11-13T06:34:25.988Z,31.40
2022-11-13T06:37:14.228Z,30.70
2022-11-13T06:40:01.011Z,32.17
2022-11-13T06:42:47.819Z,36.20
2022-11-13T06:45:34.449Z,31.47
2022-11-13T06:48:21.454Z,29.80
2022-11-13T06:51:15.720Z,31.27
2022-11-13T06:54:03.961Z,29.80
2022-11-13T06:56:51.041Z,30.07
2022-11-13T06:59:37.838Z,29.23
2022-11-13T07:02:24.763Z,30.97
2022-11-13T07:05:11.535Z,31.73
2022-11-13T07:07:58.260Z,29.27
2022-11-13T07:10:55.108Z,31.53
2022-11-13T07:13:42.512Z,32.53
2022-11-13T07:16:44.174Z,34.80
2022-11-13T07:19:36.453Z,31.50
2022-11-13T07:22:23.270Z,32.23
2022-11-13T07:25:10.753Z,32.23
2022-11-13T07:28:01.030Z,29.70
2022-11-13T07:30:47.850Z,33.90
2022-11-13T07:33:34.917Z,34.23
2022-11-13T07:36:21.952Z,32.20
2022-11-13T07:39:08.660Z,30.67
2022-11-13T07:41:55.523Z,33.57
2022-11-13T07:44:58.883Z,30.57
2022-11-13T07:47:45.556Z,29.37
2022-11-13T07:50:34.987Z,33.83
2022-11-13T07:53:23.099Z,32.50
2022-11-13T07:56:10.231Z,35.70
2022-11-13T07:58:57.386Z,31.30
2022-11-13T08:01:45.521Z,31.03
2022-11-13T08:04:32.499Z,34.30
2022-11-13T08:07:20.396Z,29.10
2022-11-13T08:10:08.792Z,36.23
2022-11-13T08:13:02.446Z,31.07
2022-11-13T08:15:49.869Z,31.30
2022-11-13T08:18:38.496Z,35.87
2022-11-13T08:21:25.771Z,32.67
2022-11-13T08:24:12.838Z,31.77
2022-11-13T08:27:00.047Z,34.27
2022-11-13T08:29:47.324Z,36.20
2022-11-13T08:32:34.305Z,41.07
2022-11-13T08:35:29.051Z,44.47
2022-11-13T08:38:16.490Z,46.00
2022-11-13T08:41:09.300Z,44.17
2022-11-13T08:43:56.786Z,43.17
2022-11-13T08:46:43.408Z,43.07
2022-11-13T08:49:30.437Z,40.93
2022-11-13T08:52:18.576Z,42.37
2022-11-13T08:55:06.901Z,45.57
2022-11-13T08:57:54.326Z,49.20
2022-11-13T09:00:41.961Z,51.17
2022-11-13T09:03:28.857Z,44.53
2022-11-13T09:06:16.398Z,45.17
2022-11-13T09:09:06.698Z,47.27
2022-11-13T09:11:53.773Z,50.13
2022-11-13T09:14:40.655Z,50.73
2022-11-13T09:17:27.802Z,46.67
2022-11-13T09:20:16.346Z,45.57
2022-11-13T09:23:09.230Z,42.87
2022-11-13T09:25:57.725Z,49.73
2022-11-13T09:28:45.006Z,49.20
2022-11-13T09:31:32.443Z,45.93
2022-11-13T09:34:19.442Z,53.00
2022-11-13T09:37:06.682Z,51.60
2022-11-13T09:39:53.986Z,43.03
2022-11-13T09:42:43.137Z,50.40
2022-11-13T09:45:34.041Z,46.87
2022-11-13T09:48:36.290Z,44.73
2022-11-13T09:51:30.494Z,38.17
2022-11-13T09:54:17.790Z,48.80
2022-11-13T09:57:26.342Z,45.77
2022-11-13T10:00:20.095Z,38.63
2022-11-13T10:07:16.947Z,45.57
2022-11-13T10:10:36.847Z,36.87
2022-11-13T10:13:29.650Z,35.63
2022-11-13T10:16:32.921Z,34.93
2022-11-13T10:19:29.493Z,40.07
2022-11-13T10:22:32.974Z,38.43
2022-11-13T10:25:24.566Z,37.43
2022-11-13T10:28:43.696Z,37.30
2022-11-13T10:31:25.065Z,39.53
2022-11-13T10:34:13.747Z,38.53
2022-11-13T10:37:22.709Z,38.97
2022-11-13T10:40:10.207Z,42.37
2022-11-13T10:43:08.247Z,38.70
2022-11-13T10:45:58.119Z,39.97
2022-11-13T10:48:46.483Z,37.60
2022-11-13T10:51:35.937Z,39.70
2022-11-13T10:54:27.015Z,36.87
2022-11-13T10:57:30.864Z,38.20
2022-11-13T11:00:26.512Z,35.17
2022-11-13T11:03:20.017Z,33.13
2022-11-13T11:06:09.506Z,32.43
2022-11-13T11:09:09.260Z,34.57
2022-11-13T11:12:22.039Z,38.07
2022-11-13T11:15:27.114Z,34.83
2022-11-13T11:18:27.634Z,37.90
2022-11-13T11:21:22.487Z,37.70
2022-11-13T11:24:17.969Z,38.17
2022-11-13T11:27:13.944Z,34.93
2022-11-13T11:30:07.451Z,35.10
2022-11-13T11:33:05.837Z,35.30
2022-11-13T11:36:03.282Z,36.53
2022-11-13T11:38:56.855Z,37.10
2022-11-13T11:41:51.919Z,36.90
2022-11-13T11:44:57.513Z,34.40
2022-11-13T11:47:45.398Z,37.33
2022-11-13T11:51:04.727Z,38.50
2022-11-13T11:54:06.867Z,38.53
2022-11-13T11:56:58.928Z,40.53
2022-11-13T12:00:04.572Z,34.70
2022-11-13T12:03:32.133Z,31.67
2022-11-13T12:06:37.035Z,33.93
2022-11-13T12:09:32.181Z,31.53
2022-11-13T12:12:35.070Z,34.00
2022-11-13T12:15:30.874Z,31.90
2022-11-13T12:18:36.219Z,30.07
2022-11-13T12:21:25.460Z,29.33
2022-11-13T12:24:56.517Z,28.23
2022-11-13T12:27:50.525Z,28.00
2022-11-13T12:30:54.230Z,31.50
2022-11-13T12:33:56.916Z,27.13
2022-11-13T12:36:47.692Z,25.53
2022-11-13T12:39:50.615Z,30.03
2022-11-13T12:42:47.064Z,26.57
2022-11-13T12:45:52.131Z,28.60
2022-11-13T12:48:42.035Z,25.47
2022-11-13T12:51:40.373Z,23.17
2022-11-13T12:54:32.901Z,27.47
2022-11-13T12:57:30.586Z,23.37
2022-11-13T13:00:29.751Z,23.57
2022-11-13T13:03:44.781Z,26.23
2022-11-13T13:06:52.944Z,23.13
2022-11-13T13:10:02.708Z,27.73
2022-11-13T13:13:02.726Z,24.27
2022-11-13T13:15:57.609Z,22.40
2022-11-13T13:18:44.265Z,25.93
2022-11-13T13:21:42.968Z,22.93
2022-11-13T13:24:33.653Z,24.37
2022-11-13T13:27:26.582Z,22.10
2022-11-13T13:30:21.068Z,21.37
2022-11-13T13:33:23.236Z,20.53
2022-11-13T13:36:26.712Z,20.80
2022-11-13T13:39:28.869Z,19.47
2022-11-13T13:42:40.905Z,22.13
2022-11-13T13:45:44.209Z,17.70
2022-11-13T13:48:32.925Z,19.67
2022-11-13T13:51:30.226Z,21.07
2022-11-13T13:54:23.257Z,20.67
2022-11-13T13:57:16.873Z,21.23
2022-11-13T14:00:04.625Z,22.03
2022-11-13T14:02:54.765Z,21.17
2022-11-13T14:05:41.608Z,21.10
2022-11-13T14:08:29.366Z,22.70
2022-11-13T14:11:21.136Z,24.37
2022-11-13T14:14:10.323Z,22.77
2022-11-13T14:17:00.439Z,20.67
2022-11-13T14:19:53.013Z,22.73
2022-11-13T14:22:41.816Z,20.60
2022-11-13T14:25:30.749Z,22.77
2022-11-13T14:28:21.132Z,24.20
2022-11-13T14:31:13.216Z,23.63
2022-11-13T14:34:09.392Z,22.87
2022-11-13T14:36:57.969Z,27.60
2022-11-13T14:39:49.085Z,28.37
2022-11-13T14:42:39.678Z,27.00
2022-11-13T14:45:29.389Z,29.43
2022-11-13T14:48:23.019Z,29.30
2022-11-13T14:51:25.671Z,29.93
2022-11-13T14:57:10.837Z,32.50
2022-11-13T14:59:57.867Z,35.53
2022-11-13T15:02:45.040Z,37.83
2022-11-13T15:05:32.912Z,38.30
2022-11-13T15:08:20.104Z,34.77
2022-11-13T15:11:07.970Z,33.50
2022-11-13T15:14:01.424Z,36.77
2022-11-13T15:16:54.463Z,34.30
2022-11-13T15:19:41.731Z,34.47
2022-11-13T15:22:29.029Z,31.53
2022-11-13T15:25:18.189Z,35.93
2022-11-13T15:28:05.523Z,34.90
2022-11-13T15:30:54.131Z,32.33
2022-11-13T15:33:41.354Z,28.90
2022-11-13T15:36:28.297Z,31.87
2022-11-13T15:39:22.985Z,28.70
2022-11-13T15:42:16.486Z,25.10
2022-11-13T15:45:05.906Z,23.47
2022-11-13T15:47:54.267Z,21.07
2022-11-13T15:50:41.576Z,18.57
2022-11-13T15:53:29.625Z,17.73
2022-11-13T15:56:17.241Z,21.53
2022-11-13T15:59:04.414Z,15.10
2022-11-13T16:01:56.808Z,16.13
2022-11-13T16:04:55.922Z,16.87
2022-11-13T16:07:44.049Z,14.43
2022-11-13T16:10:30.781Z,11.63
2022-11-13T16:13:18.803Z,14.57
2022-11-13T16:16:06.509Z,15.77
2022-11-13T16:18:59.816Z,12.67
2022-11-13T16:21:49.376Z,14.33
2022-11-13T16:24:36.319Z,13.57
2022-11-13T16:27:28.421Z,12.53
2022-11-13T16:30:19.739Z,10.90
2022-11-13T16:33:10.020Z,11.30
2022-11-13T16:35:57.309Z,12.20
2022-11-13T16:38:46.055Z,11.53
2022-11-13T16:41:34.150Z,11.20
2022-11-13T16:44:21.065Z,9.30
2022-11-13T16:47:08.861Z,13.53
2022-11-13T16:49:56.243Z,15.03
2022-11-13T16:52:43.161Z,11.77
2022-11-13T16:55:31.624Z,11.57
2022-11-13T16:58:18.572Z,13.03
2022-11-13T17:01:06.781Z,9.77
2022-11-13T17:03:53.935Z,10.70
2022-11-13T17:06:40.810Z,10.07
2022-11-13T17:09:27.651Z,18.43
2022-11-13T17:12:19.067Z,9.17
2022-11-13T17:15:11.214Z,9.87
2022-11-13T17:18:01.078Z,9.80
2022-11-13T17:20:51.974Z,10.07
2022-11-13T17:23:39.127Z,9.33
2022-11-13T17:26:26.981Z,12.57
2022-11-13T17:29:15.430Z,11.93
2022-11-13T17:32:02.593Z,9.30
2022-11-13T17:34:49.364Z,11.00
2022-11-13T17:37:36.224Z,8.50
2022-11-13T17:40:23.028Z,10.63
2022-11-13T17:43:09.872Z,10.10
2022-11-13T17:46:00.513Z,9.57
2022-11-13T17:48:48.058Z,9.47
2022-11-13T17:51:35.112Z,9.50
2022-11-13T17:54:21.852Z,9.87
2022-11-13T17:57:10.182Z,14.95
2022-11-13T17:59:57.262Z,11.13
2022-11-13T18:02:46.429Z,10.57
2022-11-13T18:05:36.753Z,9.30
2022-11-13T18:08:26.292Z,11.50
2022-11-13T18:11:17.220Z,10.07
2022-11-13T18:14:04.194Z,9.45
2022-11-13T18:16:50.969Z,10.00
2022-11-13T18:19:39.157Z,10.65
2022-11-13T18:22:26.592Z,9.25
2022-11-13T18:25:14.004Z,9.40
2022-11-13T18:28:01.077Z,10.98
2022-11-13T18:30:51.943Z,9.43
2022-11-13T18:33:42.702Z,12.95
2022-11-13T18:36:32.063Z,9.57
2022-11-13T18:39:18.972Z,10.73
2022-11-13T18:42:06.143Z,10.77
2022-11-13T18:44:52.851Z,10.50
2022-11-13T18:47:39.832Z,10.97
2022-11-13T18:50:27.716Z,10.57
2022-11-13T18:53:16.060Z,10.60
2022-11-13T18:56:05.334Z,9.43
2022-11-13T18:58:55.080Z,11.85
2022-11-13T19:01:43.203Z,11.90
2022-11-13T19:04:30.075Z,10.32
2022-11-13T19:07:17.114Z,8.85
2022-11-13T19:10:06.215Z,12.25
2022-11-13T19:12:53.349Z,12.52
2022-11-13T19:15:40.550Z,12.77
2022-11-13T19:18:27.687Z,14.40
2022-11-13T19:21:17.834Z,15.10
2022-11-13T19:24:05.854Z,14.70
2022-11-13T19:26:54.156Z,11.27
2022-11-13T19:29:41.326Z,16.10
2022-11-13T19:32:28.540Z,15.80
2022-11-13T19:35:15.748Z,15.57
2022-11-13T19:38:03.025Z,14.67
2022-11-13T19:40:52.808Z,17.17
2022-11-13T19:43:42.426Z,18.23
2022-11-13T19:46:31.973Z,16.77
2022-11-13T19:49:19.083Z,20.47
2022-11-13T19:52:06.154Z,18.73
2022-11-13T19:54:52.909Z,19.08
2022-11-13T19:57:44.911Z,17.90
2022-11-13T20:00:34.692Z,21.83
2022-11-13T20:03:22.604Z,18.50
2022-11-13T20:06:11.583Z,20.05
2022-11-13T20:09:00.410Z,20.25
2022-11-13T20:11:47.523Z,22.47
2022-11-13T20:14:38.226Z,23.17
2022-11-13T20:17:27.054Z,25.63
2022-11-13T20:20:14.358Z,24.45
2022-11-13T20:23:01.690Z,24.60
2022-11-13T20:25:57.048Z,29.38
2022-11-13T20:28:44.346Z,27.17
2022-11-13T20:31:31.536Z,29.00
2022-11-13T20:34:19.919Z,26.88
2022-11-13T20:37:06.695Z,30.65
2022-11-13T20:39:53.460Z,32.17
2022-11-13T20:42:40.218Z,30.67
2022-11-13T20:45:27.204Z,29.65
2022-11-13T20:48:14.189Z,29.53
2022-11-13T20:51:08.991Z,29.48
2022-11-13T20:53:57.230Z,29.23
2022-11-13T20:56:44.057Z,31.98
2022-11-13T20:59:30.932Z,29.50
2022-11-13T21:02:18.168Z,29.20
2022-11-13T21:05:05.334Z,36.72
2022-11-13T21:07:53.779Z,32.00
2022-11-13T21:10:40.499Z,30.77
2022-11-13T21:13:27.646Z,29.25
2022-11-13T21:16:14.508Z,27.17
2022-11-13T21:19:01.492Z,29.85
2022-11-13T21:21:48.623Z,32.37
2022-11-13T21:24:37.882Z,33.47
2022-11-13T21:27:24.709Z,32.88
2022-11-13T21:30:12.766Z,41.03
2022-11-13T21:33:00.644Z,31.55
2022-11-13T21:35:47.187Z,31.80
2022-11-13T21:38:34.535Z,31.00
2022-11-13T21:41:25.515Z,31.45
2022-11-13T21:44:12.699Z,30.65
2022-11-13T21:46:59.740Z,35.40
2022-11-13T21:49:46.813Z,33.67
2022-11-13T21:52:34.146Z,33.27
2022-11-13T21:55:21.132Z,28.98
2022-11-13T21:58:09.256Z,32.33
2022-11-13T22:00:56.143Z,35.47
2022-11-13T22:03:43.366Z,33.67
2022-11-13T22:06:33.170Z,34.00
2022-11-13T22:09:22.360Z,32.23
2022-11-13T22:12:10.967Z,34.63
2022-11-13T22:14:59.426Z,34.20
2022-11-13T22:17:46.639Z,32.47
2022-11-13T22:20:33.427Z,36.13
2022-11-13T22:23:20.266Z,35.40
2022-11-13T22:26:09.514Z,33.67
2022-11-13T22:28:57.709Z,33.22
2022-11-13T22:31:46.599Z,34.97
2022-11-13T22:34:33.548Z,37.47
2022-11-13T22:37:20.218Z,37.58
2022-11-13T22:40:08.646Z,40.00
2022-11-13T22:42:56.401Z,33.43
2022-11-13T22:45:43.122Z,35.83
2022-11-13T22:48:32.090Z,39.07
2022-11-13T22:51:21.753Z,34.08
2022-11-13T22:54:11.785Z,35.23
2022-11-13T22:57:03.860Z,36.10
2022-11-13T22:59:50.578Z,33.73
2022-11-13T23:02:37.565Z,39.67
2022-11-13T23:05:25.935Z,36.50
2022-11-13T23:08:12.731Z,35.27
2022-11-13T23:11:01.001Z,37.63
2022-11-13T23:13:51.269Z,36.50
2022-11-13T23:16:38.132Z,36.03
2022-11-13T23:19:24.928Z,34.43
2022-11-13T23:22:13.133Z,37.77
2022-11-13T23:25:00.244Z,33.93
2022-11-13T23:27:47.677Z,37.40
2022-11-13T23:30:34.830Z,39.23
2022-11-13T23:33:21.756Z,36.80
2022-11-13T23:36:11.112Z,36.53
2022-11-13T23:38:59.368Z,42.07
2022-11-13T23:41:46.345Z,41.67
2022-11-13T23:44:33.364Z,41.40
2022-11-13T23:47:20.177Z,40.63
2022-11-13T23:50:08.672Z,40.63
2022-11-13T23:52:55.977Z,40.20
2022-11-13T23:55:45.039Z,41.27
2022-11-13T23:58:32.625Z,40.90
